createdAt,value
2022-12-04T00:04:07.652Z,1577
2022-12-04T00:09:38.175Z,1599
2022-12-04T00:15:25.857Z,1623
2022-12-04T00:20:39.291Z,1651
2022-12-04T00:26:09.736Z,1679
2022-12-04T00:31:40.406Z,1685
2022-12-04T00:37:10.821Z,1697
2022-12-04T00:42:40.294Z,1728
2022-12-04T00:48:10.798Z,1746
2022-12-04T00:53:41.395Z,1789
2022-12-04T00:59:11.951Z,1779
2022-12-04T01:04:42.431Z,1771
2022-12-04T01:10:12.910Z,1835
2022-12-04T01:15:42.438Z,1881
2022-12-04T01:21:12.911Z,1876
2022-12-04T01:26:43.366Z,1860
2022-12-04T01:32:14.129Z,1868
2022-12-04T01:37:44.438Z,1915
2022-12-04T01:44:20.055Z,1962
2022-12-04T01:49:50.673Z,1963
2022-12-04T01:55:21.137Z,1941
2022-12-04T02:00:52.391Z,1953
2022-12-04T02:06:22.225Z,2024
2022-12-04T02:11:52.664Z,1965
2022-12-04T02:17:23.256Z,1972
2022-12-04T02:22:53.763Z,2042
2022-12-04T02:28:24.231Z,2083
2022-12-04T02:33:54.820Z,2094
2022-12-04T02:39:25.333Z,2081
2022-12-04T02:44:55.912Z,2112
2022-12-04T02:50:25.379Z,2111
2022-12-04T02:55:55.891Z,2118
2022-12-04T03:01:26.506Z,2118
2022-12-04T03:06:56.942Z,2124
2022-12-04T03:12:27.441Z,2147
2022-12-04T03:17:56.921Z,2136
2022-12-04T03:23:27.396Z,2126
2022-12-04T03:28:57.881Z,2129
2022-12-04T03:34:27.351Z,2139
2022-12-04T03:39:58.112Z,2162
2022-12-04T03:45:28.465Z,2190
2022-12-04T03:50:58.880Z,2211
2022-12-04T03:56:29.359Z,2181
2022-12-04T04:01:58.917Z,2176
2022-12-04T04:07:35.110Z,2176
2022-12-04T04:13:00.024Z,2182
2022-12-04T04:18:30.428Z,2195
2022-12-04T04:23:59.900Z,2201
2022-12-04T04:29:30.472Z,2225
2022-12-04T04:35:00.973Z,2213
2022-12-04T04:40:31.577Z,2219
2022-12-04T04:46:02.036Z,2241
2022-12-04T04:51:31.546Z,2201
2022-12-04T04:57:01.987Z,2217
2022-12-04T05:02:32.539Z,2222
2022-12-04T05:08:02.029Z,2191
2022-12-04T05:13:32.461Z,2188
2022-12-04T05:19:02.932Z,2183
2022-12-04T05:24:32.452Z,2191
2022-12-04T05:30:02.900Z,2194
2022-12-04T05:35:33.362Z,2201
2022-12-04T05:41:03.978Z,2206
2022-12-04T05:46:34.484Z,2196
2022-12-04T05:52:03.928Z,2135
2022-12-04T05:57:34.429Z,2120
2022-12-04T06:04:10.940Z,2114
2022-12-04T06:09:40.442Z,2194
2022-12-04T06:15:10.960Z,2179
2022-12-04T06:20:41.491Z,2399
2022-12-04T06:26:11.042Z,2038
2022-12-04T06:31:41.573Z,1975
2022-12-04T06:37:11.014Z,1883
2022-12-04T06:42:41.488Z,1839
2022-12-04T06:48:11.995Z,1860
2022-12-04T06:53:42.552Z,1781
2022-12-04T06:59:13.016Z,1661
2022-12-04T07:04:42.553Z,1568
2022-12-04T07:10:13.001Z,1478
2022-12-04T07:15:43.463Z,1429
2022-12-04T07:21:14.102Z,1353
2022-12-04T07:26:44.650Z,1295
2022-12-04T07:32:15.179Z,1254
2022-12-04T07:37:44.631Z,1218
2022-12-04T07:43:15.089Z,1185
2022-12-04T07:48:45.673Z,1165
2022-12-04T07:54:16.164Z,1124
2022-12-04T07:59:46.623Z,1101
2022-12-04T08:05:17.344Z,1050
2022-12-04T08:10:47.853Z,1027
2022-12-04T08:16:18.359Z,983
2022-12-04T08:21:47.773Z,955
2022-12-04T08:27:18.266Z,909
2022-12-04T08:32:48.718Z,899
2022-12-04T08:38:18.210Z,908
2022-12-04T08:43:48.701Z,928
2022-12-04T08:49:19.264Z,934
2022-12-04T08:54:49.743Z,923
2022-12-04T09:00:20.259Z,895
2022-12-04T09:05:50.830Z,876
2022-12-04T09:11:21.312Z,867
2022-12-04T09:16:51.868Z,868
2022-12-04T09:22:22.401Z,868
2022-12-04T09:27:52.865Z,866
2022-12-04T09:33:22.371Z,878
2022-12-04T09:38:52.789Z,884
2022-12-04T09:44:23.278Z,869
2022-12-04T09:49:54.453Z,862
2022-12-04T09:55:24.469Z,855
2022-12-04T10:00:53.971Z,842
2022-12-04T10:06:24.443Z,834
2022-12-04T10:11:54.913Z,820
2022-12-04T10:17:30.883Z,813
2022-12-04T10:22:56.008Z,819
2022-12-04T10:28:26.472Z,829
2022-12-04T10:33:57.068Z,837
2022-12-04T10:39:27.549Z,837
2022-12-04T10:44:58.006Z,906
2022-12-04T10:50:28.583Z,895
2022-12-04T10:55:59.101Z,904
2022-12-04T11:01:29.848Z,894
2022-12-04T11:07:00.244Z,879
2022-12-04T11:12:30.766Z,873
2022-12-04T11:18:00.220Z,859
2022-12-04T11:23:30.695Z,849
2022-12-04T11:29:01.210Z,839
2022-12-04T11:34:30.806Z,823
2022-12-04T11:40:01.286Z,812
2022-12-04T11:45:30.797Z,811
2022-12-04T11:51:01.367Z,791
2022-12-04T11:56:31.856Z,781
2022-12-04T12:02:02.549Z,775
2022-12-04T12:07:31.892Z,775
2022-12-04T12:13:02.324Z,773
2022-12-04T12:18:32.813Z,773
2022-12-04T12:24:03.411Z,787
2022-12-04T12:29:33.867Z,805
2022-12-04T12:35:03.368Z,811
2022-12-04T12:40:33.842Z,802
2022-12-04T12:46:04.364Z,792
2022-12-04T12:51:34.937Z,790
2022-12-04T12:57:05.385Z,782
2022-12-04T13:02:35.939Z,773
2022-12-04T13:08:06.578Z,770
2022-12-04T13:13:36.984Z,763
2022-12-04T13:19:06.501Z,765
2022-12-04T13:24:37.001Z,776
2022-12-04T13:30:07.451Z,778
2022-12-04T13:35:38.039Z,792
2022-12-04T13:41:08.539Z,806
2022-12-04T13:46:39.001Z,810
2022-12-04T13:52:08.505Z,806
2022-12-04T13:57:38.991Z,806
2022-12-04T14:03:08.567Z,794
2022-12-04T14:08:38.946Z,791
2022-12-04T14:14:09.443Z,787
2022-12-04T14:19:38.894Z,780
2022-12-04T14:25:09.380Z,774
2022-12-04T14:30:40.037Z,768
2022-12-04T14:36:10.465Z,761
2022-12-04T14:41:40.930Z,760
2022-12-04T14:47:13.652Z,759
2022-12-04T14:52:40.892Z,759
2022-12-04T14:58:11.364Z,730
2022-12-04T15:03:40.984Z,715
2022-12-04T15:09:11.414Z,711
2022-12-04T15:14:41.912Z,716
2022-12-04T15:20:12.526Z,712
2022-12-04T15:25:42.963Z,733
2022-12-04T15:31:12.538Z,747
2022-12-04T15:36:42.971Z,757
2022-12-04T15:42:13.429Z,766
2022-12-04T15:47:43.895Z,779
2022-12-04T15:53:14.498Z,795
2022-12-04T15:58:44.976Z,789
2022-12-04T16:04:15.447Z,778
2022-12-04T16:09:46.060Z,776
2022-12-04T16:15:16.526Z,772
2022-12-04T16:20:47.214Z,765
2022-12-04T16:26:17.744Z,758
2022-12-04T16:31:48.267Z,747
2022-12-04T16:37:18.782Z,747
2022-12-04T16:42:49.285Z,746
2022-12-04T16:48:19.865Z,716
2022-12-04T16:53:49.353Z,703
2022-12-04T16:59:19.850Z,694
2022-12-04T17:04:57.039Z,683
2022-12-04T17:10:23.554Z,686
2022-12-04T17:15:50.360Z,680
2022-12-04T17:21:20.877Z,692
2022-12-04T17:26:51.333Z,708
2022-12-04T17:32:21.860Z,723
2022-12-04T17:37:52.439Z,736
2022-12-04T17:43:22.945Z,720
2022-12-04T17:48:53.430Z,717
2022-12-04T17:54:22.929Z,724
2022-12-04T17:59:53.385Z,711
2022-12-04T18:05:24.006Z,709
2022-12-04T18:10:54.450Z,710
2022-12-04T18:16:25.113Z,712
2022-12-04T18:21:55.561Z,713
2022-12-04T18:27:26.071Z,706
2022-12-04T18:32:56.541Z,700
2022-12-04T18:38:27.171Z,699
2022-12-04T18:43:57.640Z,698
2022-12-04T18:49:28.110Z,704
2022-12-04T18:54:58.747Z,706
2022-12-04T19:00:29.195Z,704
2022-12-04T19:05:58.893Z,706
2022-12-04T19:11:29.322Z,704
2022-12-04T19:16:59.983Z,705
2022-12-04T19:22:30.350Z,705
2022-12-04T19:28:00.026Z,710
2022-12-04T19:33:30.332Z,708
2022-12-04T19:39:00.804Z,700
2022-12-04T19:44:52.171Z,707
2022-12-04T19:50:00.769Z,710
2022-12-04T19:55:31.258Z,706
2022-12-04T20:01:01.923Z,704
2022-12-04T20:06:32.428Z,709
2022-12-04T20:12:02.895Z,709
2022-12-04T20:17:33.577Z,706
2022-12-04T20:23:03.958Z,709
2022-12-04T20:28:34.576Z,706
2022-12-04T20:34:05.190Z,708
2022-12-04T20:39:35.637Z,706
2022-12-04T20:45:06.210Z,707
2022-12-04T20:50:36.708Z,705
2022-12-04T20:56:07.171Z,845
2022-12-04T21:01:36.756Z,971
2022-12-04T21:07:07.153Z,1072
2022-12-04T21:12:43.006Z,1087
2022-12-04T21:18:08.344Z,1123
2022-12-04T21:23:38.850Z,1190
2022-12-04T21:29:08.307Z,1225
2022-12-04T21:34:38.790Z,1238
2022-12-04T21:40:09.401Z,1255
2022-12-04T21:45:39.824Z,1294
2022-12-04T21:51:26.659Z,1345
2022-12-04T21:56:40.912Z,1357
2022-12-04T22:02:11.423Z,1353
2022-12-04T22:07:41.876Z,1389
2022-12-04T22:13:11.473Z,1407
2022-12-04T22:18:41.909Z,1437
2022-12-04T22:24:12.388Z,1471
2022-12-04T22:29:51.237Z,1484
2022-12-04T22:35:13.468Z,1510
2022-12-04T22:40:44.064Z,1551
2022-12-04T22:46:14.617Z,1584
2022-12-04T22:51:45.014Z,1598
2022-12-04T22:57:15.595Z,1632
2022-12-04T23:02:46.412Z,1677
2022-12-04T23:08:16.850Z,1702
2022-12-04T23:13:47.240Z,1711
2022-12-04T23:19:17.738Z,1706
2022-12-04T23:24:48.310Z,1722
2022-12-04T23:30:23.070Z,1781
2022-12-04T23:35:49.417Z,1777
2022-12-04T23:41:19.976Z,1789
2022-12-04T23:46:50.520Z,1818
2022-12-04T23:52:21.055Z,1825
2022-12-04T23:57:51.526Z,1836
